Darstellungsparameter: Aktuell verwendete Einstellungen:
Skalierung der Graphiken ... ?
xyx+y,   Skalierungsfaktor:      Skalierung: Modus: x, Faktor: 1
Darstellungszeitraum ... ?
Vom - - bis: - -   Zeitraum: 12.09.2010 - 12.09.2010
Min/Max/Avg-Anzeige ... ?
Zeige MMA aktuell
Zeige MMA Monat
Zeige MMA alles
Zeige --A aktuell
Zeige --A Monat
Zeige --A alles
Keine MMA-Anzeige
MMA:
Average (ber die Originaldaten)
MMA-Basis: 12.09.2010 - 12.09.2010
Quicknavigation für Darstellung... ?
Tage:      1T, 2T, 3T, 5T -1T -2T -3T -5T +1T +2T +3T +5T
Wochen: 1W, 2W, 3W -1W -2W -3W +1W +2W +3W
Monate: 1M, 3M, 6M -1M -3M -6M +1M +3M +6M
Jahre:    1J, 3J, 5J, 10J -1J -3J -5J -10J +1J +3J +5J +10J
Nutze für die Darstellung ... ?
Originaldaten oder Mittelwerte auf ...
Stundenbasis Tagesbasis Wochenbasis
Monatsbasis Jahresbasis      Datenbasis: Original-Daten
Darstellen als:
Statistik (Auto) Statistik J:M      Darstellung:
Zur Graphik,    zurück zur Übersicht aller Sensoren.
 
Tabellarische Datenbersicht: ?
 
Sensor: Nr:Datum:Temp:Abs-Feuchte:Windchill:Wind:
Aussen-T/F 1 12-09-2010 00:10:03 16.2 C 10.48 g/m*3 16.2 C 0 km/h
2 12-09-2010 00:22:03 16.2 C 10.48 g/m*3 16.2 C 0 km/h
3 12-09-2010 00:34:03 16.1 C 10.42 g/m*3 16.1 C 0 km/h
4 12-09-2010 00:46:03 16 C 10.35 g/m*3 16 C 0 km/h
5 12-09-2010 00:58:03 15.8 C 10.36 g/m*3 15.8 C 0 km/h
6 12-09-2010 01:10:03 15.6 C 10.37 g/m*3 15.6 C 0 km/h
7 12-09-2010 01:22:04 15.5 C 10.31 g/m*3 15.5 C 0 km/h
8 12-09-2010 01:34:04 15.2 C 10.25 g/m*3 15.2 C 0 km/h
9 12-09-2010 01:46:04 15.2 C 10.38 g/m*3 15.2 C 0 km/h
10 12-09-2010 01:58:04 15.2 C 10.38 g/m*3 15.2 C 0 km/h
11 12-09-2010 02:10:04 15 C 10.26 g/m*3 15 C 0 km/h
12 12-09-2010 02:22:04 15 C 10.39 g/m*3 15 C 0 km/h
13 12-09-2010 02:34:04 14.9 C 10.45 g/m*3 14.9 C 0 km/h
14 12-09-2010 02:46:04 14.8 C 10.51 g/m*3 14.8 C 0 km/h
15 12-09-2010 02:58:04 14.7 C 10.32 g/m*3 14.7 C 0 km/h
16 12-09-2010 03:10:04 14.7 C 10.32 g/m*3 14.7 C 0 km/h
17 12-09-2010 03:22:04 14.6 C 10.26 g/m*3 14.6 C 0 km/h
18 12-09-2010 03:34:04 14.4 C 10.14 g/m*3 14.4 C 0 km/h
19 12-09-2010 03:46:04 14.3 C 10.07 g/m*3 14.3 C 0 km/h
20 12-09-2010 03:58:04 14.3 C 10.2 g/m*3 14.3 C 0 km/h
21 12-09-2010 04:10:04 14.2 C 10.14 g/m*3 14.2 C 0 km/h
22 12-09-2010 04:22:04 14.1 C 10.07 g/m*3 14.1 C 0 km/h
23 12-09-2010 04:34:05 14.1 C 10.07 g/m*3 14.1 C 0 km/h
24 12-09-2010 04:46:05 14.1 C 10.07 g/m*3 14.1 C 0 km/h
25 12-09-2010 04:58:05 14 C 10.01 g/m*3 14 C 0 km/h
Sensor: Nr:Datum:Temp:Abs-Feuchte:Windchill:Wind:
Aussen-T/F 26 12-09-2010 05:10:05 13.9 C 10.07 g/m*3 13.9 C 0 km/h
27 12-09-2010 05:22:05 13.7 C 9.95 g/m*3 13.7 C 0 km/h
28 12-09-2010 05:34:05 13.8 C 10.01 g/m*3 13.8 C 0 km/h
29 12-09-2010 05:46:05 13.7 C 9.95 g/m*3 13.7 C 0 km/h
30 12-09-2010 05:58:05 13.7 C 9.95 g/m*3 13.7 C 0 km/h
31 12-09-2010 06:10:05 13.7 C 9.95 g/m*3 13.7 C 0 km/h
32 12-09-2010 06:22:05 13.5 C 9.94 g/m*3 13.5 C 0 km/h
33 12-09-2010 06:34:05 13.5 C 9.94 g/m*3 13.5 C 0 km/h
34 12-09-2010 06:46:05 13.5 C 9.94 g/m*3 13.5 C 0 km/h
35 12-09-2010 06:58:05 13.4 C 9.88 g/m*3 13.4 C 0 km/h
36 12-09-2010 07:10:05 13.5 C 9.94 g/m*3 13.5 C 0 km/h
37 12-09-2010 07:22:05 13.5 C 10.06 g/m*3 13.5 C 0 km/h
38 12-09-2010 07:34:05 13.6 C 10.12 g/m*3 13.6 C 0 km/h
39 12-09-2010 07:46:02 13.8 C 10.25 g/m*3 13.8 C 0 km/h
40 12-09-2010 07:58:02 14.1 C 10.32 g/m*3 14.1 C 0 km/h
41 12-09-2010 08:10:02 14.1 C 10.32 g/m*3 14.1 C 0 km/h
42 12-09-2010 08:22:01 14.4 C 10.38 g/m*3 14.4 C 0 km/h
43 12-09-2010 08:34:02 14.5 C 10.32 g/m*3 14.5 C 0 km/h
44 12-09-2010 08:46:02 14 C 10.13 g/m*3 14 C 0 km/h
45 12-09-2010 08:58:02 14.3 C 10.32 g/m*3 14.3 C 0 km/h
46 12-09-2010 09:10:02 14.8 C 10.64 g/m*3 14.8 C 0 km/h
47 12-09-2010 09:22:02 14.8 C 10.39 g/m*3 14.8 C 0 km/h
48 12-09-2010 09:34:02 14.8 C 10.51 g/m*3 14.8 C 0 km/h
49 12-09-2010 09:46:02 15 C 10.51 g/m*3 15 C 0 km/h
50 12-09-2010 09:58:02 14.8 C 10.51 g/m*3 14.8 C 0 km/h
Sensor: Nr:Datum:Temp:Abs-Feuchte:Windchill:Wind:
Aussen-T/F 51 12-09-2010 10:10:02 15.3 C 10.84 g/m*3 15.3 C 0 km/h
52 12-09-2010 10:22:03 15.9 C 11.1 g/m*3 15.9 C 0 km/h
53 12-09-2010 10:34:02 16.8 C 11.29 g/m*3 16.8 C 0 km/h
54 12-09-2010 10:46:02 18 C 11.37 g/m*3 18 C 0 km/h
55 12-09-2010 10:58:02 18.7 C 11.05 g/m*3 18.7 C 0 km/h
56 12-09-2010 11:10:02 19.5 C 10.41 g/m*3 19.5 C 0 km/h
57 12-09-2010 11:22:02 20.2 C 10.67 g/m*3 20.2 C 0 km/h
58 12-09-2010 11:34:02 20.1 C 10.6 g/m*3 20.1 C 0 km/h
59 12-09-2010 11:46:02 20 C 10.89 g/m*3 20 C 0 km/h
60 12-09-2010 11:58:02 20.3 C 10.9 g/m*3 20.3 C 0 km/h
61 12-09-2010 12:10:01 20.5 C 10.85 g/m*3 20.5 C 0 km/h
62 12-09-2010 12:22:02 20.9 C 11.11 g/m*3 20.9 C 0 km/h
63 12-09-2010 12:34:01 21.4 C 11.06 g/m*3 21.4 C 0 km/h
64 12-09-2010 12:46:01 22.4 C 10.33 g/m*3 22.4 C 0 km/h
65 12-09-2010 12:58:02 22.9 C 10.22 g/m*3 22.9 C 0 km/h
66 12-09-2010 13:10:01 23.1 C 10.34 g/m*3 23.1 C 0 km/h
67 12-09-2010 13:22:01 23.7 C 10.48 g/m*3 23.7 C 0 km/h
68 12-09-2010 13:34:02 24.3 C 9.74 g/m*3 24.3 C 0 km/h
69 12-09-2010 13:46:02 25 C 8.98 g/m*3 25 C 0 km/h
70 12-09-2010 13:58:02 25.9 C 9.44 g/m*3 25.9 C 0 km/h
71 12-09-2010 14:10:02 25.7 C 9.34 g/m*3 25.7 C 0 km/h
72 12-09-2010 14:22:01 25 C 8.06 g/m*3 25 C 0 km/h
73 12-09-2010 14:34:02 24.7 C 8.15 g/m*3 24.7 C 0 km/h
74 12-09-2010 14:46:02 23.1 C 9.72 g/m*3 23.1 C 0 km/h
75 12-09-2010 14:58:02 20.8 C 10.14 g/m*3 20.8 C 0 km/h
Sensor: Nr:Datum:Temp:Abs-Feuchte:Windchill:Wind:
Aussen-T/F 76 12-09-2010 15:10:02 19.5 C 9.23 g/m*3 19.5 C 0 km/h
77 12-09-2010 15:22:02 19.1 C 8.69 g/m*3 19.1 C 0 km/h
78 12-09-2010 15:34:02 19.4 C 8.84 g/m*3 19.4 C 0 km/h
79 12-09-2010 15:46:02 19.4 C 8.84 g/m*3 19.4 C 0 km/h
80 12-09-2010 15:58:02 19.2 C 8.74 g/m*3 19.2 C 0 km/h
81 12-09-2010 16:10:02 17.9 C 8.86 g/m*3 17.9 C 0 km/h
82 12-09-2010 16:22:02 18.1 C 9.12 g/m*3 18.1 C 0 km/h
83 12-09-2010 16:34:02 18.1 C 9.27 g/m*3 18.1 C 0 km/h
84 12-09-2010 16:46:02 17.6 C 9.3 g/m*3 17.6 C 0 km/h
85 12-09-2010 16:58:02 17.2 C 9.37 g/m*3 17.2 C 0 km/h
86 12-09-2010 17:10:02 17.2 C 9.52 g/m*3 17.2 C 0 km/h
87 12-09-2010 17:22:02 16.6 C 9.04 g/m*3 16.6 C 0 km/h
88 12-09-2010 17:34:01 16.1 C 9.46 g/m*3 16.1 C 0 km/h
89 12-09-2010 17:46:02 15.6 C 9.97 g/m*3 15.6 C 0 km/h
90 12-09-2010 17:58:02 15.5 C 10.31 g/m*3 15.5 C 0 km/h
91 12-09-2010 18:10:01 15.2 C 10.25 g/m*3 15.2 C 0 km/h
92 12-09-2010 18:22:02 15.2 C 10.51 g/m*3 15.2 C 0 km/h
93 12-09-2010 18:34:02 14.9 C 10.58 g/m*3 14.9 C 0 km/h
94 12-09-2010 18:46:02 14.7 C 10.7 g/m*3 14.7 C 0 km/h
95 12-09-2010 18:58:02 14.6 C 10.89 g/m*3 14.6 C 0 km/h
96 12-09-2010 19:10:02 14.5 C 10.82 g/m*3 14.5 C 0 km/h
97 12-09-2010 19:22:02 14.3 C 10.69 g/m*3 14.3 C 0 km/h
98 12-09-2010 19:34:02 14.1 C 10.68 g/m*3 14.1 C 0 km/h
99 12-09-2010 19:46:01 14.3 C 10.93 g/m*3 14.3 C 0 km/h
100 12-09-2010 19:58:01 14.1 C 10.8 g/m*3 14.1 C 0 km/h
Sensor: Nr:Datum:Temp:Abs-Feuchte:Windchill:Wind:
Aussen-T/F 101 12-09-2010 20:10:02 14 C 10.74 g/m*3 14 C 0 km/h
102 12-09-2010 20:22:01 13.9 C 10.79 g/m*3 13.9 C 0 km/h
103 12-09-2010 20:34:01 13.8 C 10.84 g/m*3 13.8 C 0 km/h
104 12-09-2010 20:46:01 13.7 C 10.78 g/m*3 13.7 C 0 km/h
105 12-09-2010 20:58:01 13.7 C 10.89 g/m*3 13.7 C 0 km/h
106 12-09-2010 21:10:02 13.6 C 10.83 g/m*3 13.6 C 0 km/h
107 12-09-2010 21:22:01 13.7 C 10.89 g/m*3 13.7 C 0 km/h
108 12-09-2010 21:34:01 13.7 C 10.89 g/m*3 13.7 C 0 km/h
109 12-09-2010 21:46:01 13.9 C 11.15 g/m*3 13.9 C 0 km/h
110 12-09-2010 21:58:01 14 C 11.1 g/m*3 14 C 0 km/h
111 12-09-2010 22:10:02 13.9 C 11.15 g/m*3 13.9 C 0 km/h
112 12-09-2010 22:22:01 13.9 C 11.15 g/m*3 13.9 C 0 km/h
113 12-09-2010 22:34:02 13.8 C 11.08 g/m*3 13.8 C 0 km/h
114 12-09-2010 22:46:02 13.7 C 11.01 g/m*3 13.7 C 0 km/h
115 12-09-2010 22:58:02 13.6 C 10.95 g/m*3 13.6 C 0 km/h
116 12-09-2010 23:10:01 13.5 C 10.88 g/m*3 13.5 C 0 km/h
117 12-09-2010 23:22:02 13.5 C 10.88 g/m*3 13.5 C 0 km/h
118 12-09-2010 23:34:02 13.5 C 10.88 g/m*3 13.5 C 0 km/h
119 12-09-2010 23:46:02 13.7 C 11.01 g/m*3 13.7 C 0 km/h
120 12-09-2010 23:58:02 13.7 C 11.01 g/m*3 13.7 C 0 km/h

Legende:
   Min
   Max


Maximal/Minimal-Werte vom 12.09.2010 - 12.09.2010

Sensor Min Max Avg
Temp
(Aussen-T/F)
13.4 °C
12-09-2010  06:58:05
25.9 °C
12-09-2010  13:58:02
16.22 °C
Abs-Feuchte
(Aussen-T/F)
8.06 g/m*3
12-09-2010  14:22:01
11.37 g/m*3
12-09-2010  10:46:02
10.19 g/m*3
Windchill
(Aussen-T/F)
13.4 C
12-09-2010  06:58:05
25.9 C
12-09-2010  13:58:02
16.08 C

Die Daten stammen von einer Davis Vantage Pro 2 Wetter-Station und werden unter Linux mit der Software wview2wettercgi und aufbereitet. Alle Angaben erfolgen ohne Gewähr für ihre Vollständigkeit oder Richtigkeit.
Kontakt: Rainer Krienke krienke@uni-koblenz.de . Meine Webseiten an der Uni Koblenz oder privat.
Version: $Revision: 0.78 $